Time;durP1;ratioP1;P1;durP2;ratioP2;P2;SDS_P1;SDS_P2;PMS_P1;PMS_P2;Temp;Humidity;BMP_temperature;BMP_pressure;BME280_temperature;BME280_humidity;BME280_pressure;Samples;Min_cycle;Max_cycle;Signal;HPM_P1;HPM_P2
2023/01/12 00:00:33;;;;;;;;;;;;;;;9.08;83.98;100952.09;5008971;28;20070;-88
2023/01/12 00:02:58;;;;;;;7.28;1.77;;;;;;;9.01;84.40;100947.97;5009549;28;19913;-88
2023/01/12 00:05:23;;;;;;;4.68;1.77;;;;;;;9.01;84.36;100945.31;5024023;28;20034;-87
2023/01/12 00:07:48;;;;;;;5.88;2.10;;;;;;;9.06;84.31;100946.03;5027831;28;20143;-88
2023/01/12 00:10:14;;;;;;;11.30;2.55;;;;;;;9.05;84.53;100944.31;5008238;28;20040;-88
2023/01/12 00:12:39;;;;;;;12.60;2.65;;;;;;;9.02;83.95;100933.00;5027729;28;20516;-88
2023/01/12 00:15:05;;;;;;;6.88;2.03;;;;;;;9.06;84.51;100921.44;5023566;28;20037;-88
2023/01/12 00:17:31;;;;;;;7.55;1.92;;;;;;;9.08;84.17;100930.16;5020838;28;20397;-88
2023/01/12 00:19:56;;;;;;;6.35;2.60;;;;;;;9.09;83.84;100947.69;5024879;28;20083;-88
2023/01/12 00:22:22;;;;;;;7.95;1.98;;;;;;;9.14;84.33;100928.19;5021598;28;20084;-88
2023/01/12 00:24:48;;;;;;;9.05;2.15;;;;;;;9.06;84.16;100931.97;5026648;28;20028;-88
2023/01/12 00:27:16;;;;;;;8.18;2.03;;;;;;;9.08;84.95;100925.72;5028498;28;20144;-88
2023/01/12 00:29:42;;;;;;;8.02;1.90;;;;;;;9.18;84.87;100928.94;5008484;28;20344;-88
2023/01/12 00:32:15;;;;;;;9.73;2.00;;;;;;;9.16;84.84;100930.75;5026468;28;20056;-88
2023/01/12 00:34:41;;;;;;;5.88;2.10;;;;;;;9.18;84.36;100919.22;5025070;28;20041;-88
2023/01/12 00:37:06;;;;;;;10.63;1.80;;;;;;;9.18;84.86;100913.97;5020942;28;20132;-88
2023/01/12 00:39:33;;;;;;;9.75;2.38;;;;;;;9.15;84.32;100907.94;5029537;28;20026;-88
2023/01/12 00:47:26;;;;;;;6.10;2.13;;;;;;;9.25;84.42;100895.31;5026012;28;20107;-88
2023/01/12 00:49:52;;;;;;;8.85;1.73;;;;;;;9.26;84.74;100882.06;5009674;28;20033;-88
2023/01/12 00:52:18;;;;;;;7.80;2.30;;;;;;;9.25;86.07;100913.78;5026509;28;20040;-88
2023/01/12 00:54:44;;;;;;;15.98;3.58;;;;;;;9.10;86.47;100894.91;5028184;28;20440;-87
2023/01/12 00:57:12;;;;;;;5.28;2.00;;;;;;;9.11;86.64;100898.41;5015642;28;20026;-88
2023/01/12 00:59:38;;;;;;;11.90;2.50;;;;;;;9.04;86.74;100876.63;5025224;28;20021;-88
2023/01/12 01:02:04;;;;;;;7.97;2.65;;;;;;;9.11;86.83;100874.66;5010820;28;20036;-87
2023/01/12 01:04:29;;;;;;;10.27;2.80;;;;;;;9.03;86.87;100864.38;5029332;28;20079;-88
2023/01/12 01:06:55;;;;;;;14.35;2.88;;;;;;;9.13;86.58;100873.69;5009563;28;20033;-88
2023/01/12 01:09:20;;;;;;;10.93;2.50;;;;;;;9.15;86.57;100857.84;5034415;28;20120;-87
2023/01/12 01:11:45;;;;;;;13.05;2.75;;;;;;;9.14;86.59;100859.63;5009974;28;20064;-87
2023/01/12 01:14:11;;;;;;;7.57;2.58;;;;;;;9.08;86.76;100859.78;5028365;28;20374;-87
2023/01/12 01:16:36;;;;;;;9.68;2.83;;;;;;;9.16;87.09;100860.41;5003530;28;20031;-88
2023/01/12 01:19:04;;;;;;;10.48;2.47;;;;;;;9.16;87.01;100854.28;5020672;28;20104;-87
2023/01/12 01:21:30;;;;;;;14.90;2.92;;;;;;;9.13;86.82;100847.31;5003480;28;20033;-87
2023/01/12 01:23:55;;;;;;;7.85;2.17;;;;;;;9.15;87.27;100849.91;5003292;28;20469;-85
2023/01/12 01:26:22;;;;;;;13.07;3.22;;;;;;;9.20;87.49;100851.47;5008318;28;20040;-85
2023/01/12 01:28:48;;;;;;;10.82;2.80;;;;;;;9.16;87.15;100841.94;5009033;28;20029;-85
2023/01/12 01:31:19;;;;;;;14.20;2.78;;;;;;;9.14;87.87;100846.44;5011222;28;20517;-85
2023/01/12 01:33:45;;;;;;;11.25;3.20;;;;;;;9.19;87.38;100847.13;5013628;28;20032;-85
2023/01/12 01:36:11;;;;;;;11.07;2.40;;;;;;;9.16;87.31;100843.72;5030971;28;20481;-85
2023/01/12 01:38:37;;;;;;;17.90;3.17;;;;;;;9.14;88.32;100842.94;5033704;28;20025;-84
2023/01/12 01:41:04;;;;;;;14.82;3.25;;;;;;;9.03;88.73;100839.78;5029697;28;20033;-86
2023/01/12 01:43:52;;;;;;;19.40;3.80;;;;;;;9.09;88.92;100850.09;5018774;28;20644;-85
2023/01/12 01:46:52;;;;;;;11.02;2.35;;;;;;;9.16;88.36;100857.78;5023902;28;20029;-85
2023/01/12 01:49:29;;;;;;;15.45;2.55;;;;;;;9.12;88.81;100835.03;4998097;28;20053;-84
2023/01/12 01:52:05;;;;;;;15.23;2.78;;;;;;;9.08;89.14;100837.84;5029887;28;20488;-85
2023/01/12 01:54:35;;;;;;;10.30;2.80;;;;;;;9.10;88.75;100830.75;5029163;28;20034;-85
2023/01/12 01:57:01;;;;;;;13.30;2.67;;;;;;;9.10;88.35;100818.44;5026997;28;20589;-85
2023/01/12 01:59:30;;;;;;;16.17;2.78;;;;;;;9.06;88.19;100814.16;5029598;28;20108;-85
2023/01/12 02:01:56;;;;;;;12.65;3.25;;;;;;;8.97;87.86;100793.38;5032703;28;20528;-85
2023/01/12 02:04:22;;;;;;;12.23;2.72;;;;;;;8.96;88.74;100782.91;5007563;28;20049;-85
2023/01/12 02:06:48;;;;;;;16.65;3.10;;;;;;;9.00;88.51;100777.47;5028388;28;20228;-85
2023/01/12 02:09:31;;;;;;;22.00;4.43;;;;;;;8.93;88.62;100791.75;5027231;28;20435;-85
2023/01/12 02:17:38;;;;;;;18.33;3.70;;;;;;;9.07;88.69;100784.25;5022298;28;20067;-85
2023/01/12 02:20:11;;;;;;;11.07;3.03;;;;;;;9.01;89.12;100781.81;5024037;28;20025;-85
2023/01/12 02:22:55;;;;;;;;;;;;;;;9.13;88.76;100772.59;5005199;28;20043;-85
2023/01/12 02:25:56;;;;;;;9.02;2.30;;;;;;;8.97;89.41;100760.88;5005598;28;19917;-84
2023/01/12 02:28:43;;;;;;;16.30;2.50;;;;;;;8.99;89.51;100778.34;5006761;28;20493;-85
2023/01/12 02:31:31;;;;;;;19.73;2.92;;;;;;;9.03;89.43;100790.53;5016047;28;20544;-85
2023/01/12 02:34:32;;;;;;;11.40;3.05;;;;;;;8.85;90.45;100756.88;5021662;28;20037;-85
2023/01/12 02:37:31;;;;;;;14.90;4.18;;;;;;;9.06;89.78;100768.47;5007995;28;20437;-85
2023/01/12 02:40:11;;;;;;;14.18;3.03;;;;;;;9.07;90.31;100763.13;5019114;28;20032;-84
2023/01/12 02:43:04;;;;;;;12.60;3.42;;;;;;;9.09;89.08;100763.97;5007577;28;20119;-85
2023/01/12 02:46:03;;;;;;;13.93;2.40;;;;;;;9.13;89.52;100747.09;5001431;28;20120;-85
2023/01/12 02:48:36;;;;;;;17.13;2.63;;;;;;;9.17;88.99;100747.84;4997072;28;20037;-85
2023/01/12 02:51:28;;;;;;;10.13;2.13;;;;;;;9.18;88.92;100746.94;5027262;28;20040;-84
2023/01/12 02:54:09;;;;;;;10.23;2.80;;;;;;;9.26;88.53;100751.94;5025279;28;20036;-85
2023/01/12 02:56:43;;;;;;;19.00;3.47;;;;;;;9.25;88.55;100739.66;5005356;28;20108;-85
2023/01/12 02:59:15;;;;;;;14.23;3.50;;;;;;;9.27;88.39;100737.81;5028110;28;20056;-84
2023/01/12 03:01:41;;;;;;;;;;;;;;;9.34;88.20;100736.69;5001199;28;20025;-85
2023/01/12 03:04:09;;;;;;;10.50;2.88;;;;;;;9.20;88.79;100719.59;4999441;28;20015;-85
2023/01/12 03:07:01;;;;;;;13.65;3.00;;;;;;;9.28;88.94;100729.00;5024606;28;20445;-85
2023/01/12 03:09:33;;;;;;;15.23;2.60;;;;;;;9.22;89.48;100713.41;4976311;28;20042;-86
2023/01/12 03:12:19;;;;;;;;;;;;;;;9.19;89.32;100715.25;5024945;28;20065;-85
2023/01/12 03:14:47;;;;;;;10.38;2.85;;;;;;;9.05;89.66;100730.69;5007235;28;20010;-85
2023/01/12 03:17:29;;;;;;;22.92;2.92;;;;;;;9.12;90.11;100700.53;5007658;28;20021;-85
2023/01/12 03:19:57;;;;;;;12.27;2.72;;;;;;;9.12;89.56;100682.06;5025653;28;20476;-85
2023/01/12 03:22:23;;;;;;;10.10;2.33;;;;;;;9.16;90.01;100672.28;5010844;28;20021;-84
2023/01/12 03:24:57;;;;;;;15.32;3.25;;;;;;;9.13;90.41;100662.69;5027443;28;20467;-84
2023/01/12 03:27:39;;;;;;;16.70;3.33;;;;;;;9.12;90.26;100668.91;5011524;28;20515;-85
2023/01/12 03:30:28;;;;;;;10.35;2.53;;;;;;;9.13;90.27;100661.84;5010004;28;20116;-85
2023/01/12 03:32:53;;;;;;;15.63;3.72;;;;;;;9.14;90.27;100650.41;5026087;28;20057;-85
2023/01/12 03:35:24;;;;;;;12.10;3.25;;;;;;;9.08;90.57;100662.00;5028777;28;20033;-85
2023/01/12 03:37:57;;;;;;;11.93;2.65;;;;;;;9.11;90.43;100643.44;5030869;28;20104;-85
2023/01/12 03:40:28;;;;;;;13.27;2.53;;;;;;;9.14;90.36;100648.63;5028893;28;20029;-85
2023/01/12 03:43:12;;;;;;;17.60;2.83;;;;;;;9.17;91.23;100647.63;5003214;28;20100;-86
2023/01/12 03:45:50;;;;;;;10.93;2.72;;;;;;;9.08;91.04;100626.88;5024614;28;20476;-85
2023/01/12 03:48:37;;;;;;;13.90;3.22;;;;;;;9.00;91.45;100627.16;5021341;28;20033;-85
2023/01/12 03:51:14;;;;;;;19.02;3.53;;;;;;;9.06;91.80;100628.72;5026992;28;20485;-85
2023/01/12 03:53:42;;;;;;;14.32;2.75;;;;;;;9.02;91.53;100604.22;5030070;28;20450;-85
2023/01/12 03:56:11;;;;;;;13.57;2.50;;;;;;;8.99;91.68;100609.59;5007473;28;20068;-85
2023/01/12 03:58:37;;;;;;;10.57;2.95;;;;;;;9.07;91.64;100604.91;5030118;28;20056;-85
2023/01/12 04:01:03;;;;;;;9.20;2.30;;;;;;;8.99;92.31;100580.59;5029688;28;20485;-86
2023/01/12 04:03:29;;;;;;;9.93;2.20;;;;;;;8.89;92.29;100559.00;5011732;28;20022;-86
2023/01/12 04:05:54;;;;;;;10.27;2.33;;;;;;;9.09;91.71;100581.09;5029178;28;20036;-85
2023/01/12 04:08:20;;;;;;;14.00;2.67;;;;;;;9.00;91.45;100569.16;5030628;28;20025;-85
2023/01/12 04:10:45;;;;;;;10.18;2.20;;;;;;;8.98;91.91;100563.06;5027774;28;20520;-85
2023/01/12 04:13:10;;;;;;;9.70;2.10;;;;;;;9.05;91.99;100559.28;5009511;28;20031;-86
2023/01/12 04:15:41;;;;;;;12.27;2.17;;;;;;;9.01;92.23;100544.50;5028515;28;20988;-86
2023/01/12 04:18:06;;;;;;;10.85;2.60;;;;;;;8.97;92.32;100547.31;5012493;28;20029;-86
2023/01/12 04:20:31;;;;;;;13.75;3.80;;;;;;;9.01;92.60;100519.91;5011065;28;20033;-85
2023/01/12 04:22:57;;;;;;;9.00;2.20;;;;;;;9.04;92.48;100520.63;5029388;28;20041;-85
2023/01/12 04:25:22;;;;;;;12.18;2.65;;;;;;;8.91;92.74;100491.28;5030625;28;20037;-86
2023/01/12 04:27:55;;;;;;;9.35;2.00;;;;;;;9.00;92.58;100497.09;5032306;28;20028;-86
2023/01/12 04:30:23;;;;;;;9.73;2.42;;;;;;;8.86;92.32;100508.16;5011463;28;20485;-86
2023/01/12 04:32:49;;;;;;;5.95;1.67;;;;;;;9.04;92.63;100503.97;5010086;28;20503;-86
2023/01/12 04:35:15;;;;;;;10.05;2.30;;;;;;;8.97;92.75;100487.53;5031756;28;20029;-85
2023/01/12 04:37:42;;;;;;;13.35;2.67;;;;;;;8.91;94.23;100496.53;5033578;28;20468;-85
2023/01/12 04:40:09;;;;;;;11.25;2.65;;;;;;;8.74;94.86;100475.25;5012320;28;20040;-85
2023/01/12 04:45:20;;;;;;;10.77;2.35;;;;;;;8.71;96.09;100471.84;5023971;28;20252;-86
2023/01/12 04:47:45;;;;;;;11.77;2.35;;;;;;;8.74;96.51;100453.31;5030570;28;20519;-86
2023/01/12 04:50:11;;;;;;;13.48;2.60;;;;;;;8.68;96.79;100434.19;5014510;28;20038;-86
2023/01/12 04:52:36;;;;;;;11.88;2.45;;;;;;;8.70;96.17;100436.75;5026486;28;20034;-86
2023/01/12 04:55:03;;;;;;;11.52;2.67;;;;;;;8.75;95.42;100423.38;5011315;28;20037;-88
2023/01/12 04:57:29;;;;;;;11.35;2.00;;;;;;;8.73;96.85;100425.25;5027017;28;20025;-87
2023/01/12 04:59:54;;;;;;;17.98;2.40;;;;;;;8.74;97.43;100426.94;5007259;28;20541;-87
2023/01/12 05:02:20;;;;;;;8.07;2.33;;;;;;;8.77;96.62;100425.06;5006360;28;20057;-87
2023/01/12 05:04:46;;;;;;;8.65;2.25;;;;;;;8.67;96.88;100415.78;5010598;28;20541;-87
2023/01/12 05:07:12;;;;;;;10.98;2.08;;;;;;;8.81;96.69;100439.84;5005733;28;20029;-87
2023/01/12 05:12:21;;;;;;;11.05;1.95;;;;;;;8.83;96.75;100431.84;5025952;28;20420;-88
2023/01/12 05:14:48;;;;;;;11.00;2.53;;;;;;;8.74;97.13;100427.81;5028502;28;20029;-87
2023/01/12 05:17:13;;;;;;;8.38;2.08;;;;;;;8.80;96.96;100416.16;5004871;28;20036;-86
2023/01/12 05:19:38;;;;;;;11.63;2.30;;;;;;;8.54;98.34;100378.53;5010973;28;20030;-87
2023/01/12 05:22:04;;;;;;;15.52;2.53;;;;;;;8.64;97.60;100429.09;5005891;28;20555;-88
2023/01/12 05:24:29;;;;;;;11.18;2.22;;;;;;;8.75;97.88;100418.13;5000304;28;20021;-88
2023/01/12 05:26:55;;;;;;;7.80;1.77;;;;;;;8.66;97.54;100400.88;5027185;28;20040;-88
2023/01/12 05:29:20;;;;;;;8.82;2.35;;;;;;;8.75;97.75;100418.97;5024475;28;20490;-88
2023/01/12 05:31:45;;;;;;;12.10;1.77;;;;;;;8.78;97.56;100428.56;5011069;28;20033;-88
2023/01/12 05:34:10;;;;;;;15.45;2.40;;;;;;;8.73;97.66;100409.44;5009425;28;20025;-88
2023/01/12 05:36:36;;;;;;;14.02;2.25;;;;;;;8.75;97.69;100418.13;5007623;28;20071;-87
2023/01/12 05:39:03;;;;;;;17.52;1.92;;;;;;;8.77;98.04;100413.66;5030359;28;20026;-88
2023/01/12 05:41:28;;;;;;;9.13;2.13;;;;;;;8.74;98.43;100400.59;5004122;28;20060;-87
2023/01/12 05:43:54;;;;;;;15.32;2.72;;;;;;;8.73;97.99;100412.06;5012070;28;20073;-88
2023/01/12 05:46:24;;;;;;;13.27;2.53;;;;;;;8.68;98.13;100446.50;5028000;28;20532;-87
2023/01/12 05:48:51;;;;;;;8.50;1.92;;;;;;;8.73;98.28;100405.00;5025517;28;20489;-87
2023/01/12 05:51:17;;;;;;;6.50;1.65;;;;;;;8.74;97.89;100395.31;5026388;28;20076;-90
2023/01/12 05:53:42;;;;;;;11.52;2.45;;;;;;;8.75;98.06;100407.56;5007979;28;20069;-90
2023/01/12 05:56:09;;;;;;;7.25;1.55;;;;;;;8.92;97.79;100405.13;5010291;28;20021;-89
2023/01/12 05:58:35;;;;;;;8.45;1.85;;;;;;;8.74;97.78;100384.78;5028517;28;20060;-90
2023/01/12 06:01:00;;;;;;;10.52;1.80;;;;;;;8.70;98.88;100386.66;5025050;28;20056;-90
2023/01/12 06:03:25;;;;;;;8.82;1.83;;;;;;;8.82;98.21;100403.78;5028398;28;20033;-90
2023/01/12 06:05:57;;;;;;;7.30;1.98;;;;;;;8.77;98.73;100401.34;5012671;28;20100;-90
2023/01/12 06:08:22;;;;;;;9.63;1.45;;;;;;;8.81;99.13;100394.13;5028136;28;20022;-89
2023/01/12 06:10:47;;;;;;;7.28;1.60;;;;;;;8.80;98.74;100379.25;5027255;28;20025;-90
2023/01/12 06:16:03;;;;;;;13.43;1.90;;;;;;;8.88;98.38;100379.81;5023942;28;20048;-89
2023/01/12 06:18:32;;;;;;;6.75;1.27;;;;;;;8.79;99.37;100390.72;5028173;28;20531;-89
2023/01/12 06:21:01;;;;;;;7.13;1.55;;;;;;;8.94;99.04;100406.78;5013248;28;20044;-88
2023/01/12 06:23:27;;;;;;;9.38;1.80;;;;;;;8.88;99.06;100387.72;5025014;28;20433;-88
2023/01/12 06:25:52;;;;;;;6.90;1.77;;;;;;;8.91;98.45;100383.19;5008575;28;20029;-89
2023/01/12 06:28:18;;;;;;;7.60;1.42;;;;;;;9.01;98.78;100406.53;5010341;28;20029;-88
2023/01/12 06:30:43;;;;;;;13.45;2.58;;;;;;;8.85;99.36;100404.50;5008817;28;20440;-88
2023/01/12 06:33:08;;;;;;;4.95;1.17;;;;;;;8.93;99.53;100404.22;5025756;28;20032;-88
2023/01/12 06:35:34;;;;;;;6.70;1.63;;;;;;;9.01;99.42;100401.28;5010269;28;20056;-88
2023/01/12 06:37:59;;;;;;;6.68;1.50;;;;;;;8.92;99.62;100395.44;5029640;28;20397;-88
2023/01/12 06:40:24;;;;;;;7.13;1.58;;;;;;;9.04;99.22;100406.41;5004361;28;20484;-88
2023/01/12 06:42:50;;;;;;;6.75;1.52;;;;;;;9.01;99.29;100404.75;5008028;28;20049;-88
2023/01/12 06:45:15;;;;;;;4.25;1.25;;;;;;;9.04;98.67;100396.69;5025346;28;20057;-88
2023/01/12 06:47:50;;;;;;;5.22;1.35;;;;;;;9.10;98.49;100414.06;5010161;28;20479;-88
2023/01/12 06:50:16;;;;;;;7.35;1.30;;;;;;;9.13;99.17;100416.56;5001469;28;20472;-88
2023/01/12 06:52:41;;;;;;;6.13;1.65;;;;;;;9.08;99.24;100398.31;5005057;28;20065;-88
2023/01/12 06:55:07;;;;;;;6.78;1.30;;;;;;;9.05;99.20;100387.03;5025649;28;20088;-88
2023/01/12 06:57:32;;;;;;;4.65;1.27;;;;;;;9.13;99.35;100404.25;5008956;28;20075;-89
2023/01/12 06:59:58;;;;;;;5.93;1.45;;;;;;;9.02;99.45;100389.78;5027715;28;20040;-88
2023/01/12 07:02:23;;;;;;;6.00;1.45;;;;;;;9.15;98.56;100404.19;5006325;28;20532;-88
2023/01/12 07:04:48;;;;;;;9.88;1.80;;;;;;;9.16;99.38;100422.59;5026716;28;20137;-89
2023/01/12 07:07:14;;;;;;;6.57;1.30;;;;;;;9.13;99.23;100385.78;5013277;28;20033;-88
2023/01/12 07:09:39;;;;;;;9.82;1.33;;;;;;;9.20;99.13;100407.50;5026879;28;20041;-89
2023/01/12 07:12:05;;;;;;;5.70;1.45;;;;;;;9.10;99.09;100396.47;5022737;28;20021;-89
2023/01/12 07:14:30;;;;;;;4.45;1.27;;;;;;;9.16;98.72;100377.75;5004249;28;20048;-89
2023/01/12 07:16:55;;;;;;;4.15;1.52;;;;;;;9.18;98.60;100394.34;5020771;28;20037;-89
2023/01/12 07:19:21;;;;;;;5.88;1.45;;;;;;;9.11;98.59;100390.28;5026569;28;20036;-90
2023/01/12 07:21:48;;;;;;;5.68;1.20;;;;;;;9.27;98.53;100406.31;5013158;28;20020;-89
2023/01/12 07:24:14;;;;;;;4.18;1.20;;;;;;;9.23;98.19;100404.72;5023243;28;20024;-89
2023/01/12 07:26:39;;;;;;;6.35;1.33;;;;;;;9.31;98.53;100407.03;5006396;28;20025;-89
2023/01/12 07:29:05;;;;;;;4.55;1.23;;;;;;;9.28;98.19;100405.41;5024737;28;20401;-89
2023/01/12 07:31:30;;;;;;;4.57;1.15;;;;;;;9.22;98.05;100417.97;5028510;28;20041;-89
2023/01/12 07:33:55;;;;;;;4.68;1.35;;;;;;;9.28;98.23;100418.59;5029246;28;20033;-89
2023/01/12 07:36:21;;;;;;;3.55;1.58;;;;;;;9.29;98.56;100420.31;5031472;28;20098;-90
2023/01/12 07:38:47;;;;;;;5.95;1.20;;;;;;;9.32;98.57;100406.13;5033650;28;20049;-89
2023/01/12 07:43:56;;;;;;;4.00;1.73;;;;;;;9.32;98.49;100408.75;5029201;28;20603;-90
2023/01/12 07:46:22;;;;;;;3.22;1.15;;;;;;;9.42;97.95;100433.84;5009640;28;20120;-90
2023/01/12 07:48:47;;;;;;;5.13;1.67;;;;;;;9.38;98.31;100433.13;5029175;28;20423;-90
2023/01/12 07:51:13;;;;;;;2.67;1.67;;;;;;;9.25;98.51;100420.50;5009732;28;20025;-90
2023/01/12 07:53:38;;;;;;;3.65;1.42;;;;;;;9.39;98.74;100432.19;5010222;28;20039;-90
2023/01/12 07:56:03;;;;;;;9.27;1.73;;;;;;;9.38;98.92;100421.72;5009332;28;20392;-90
2023/01/12 07:58:30;;;;;;;3.92;1.27;;;;;;;9.41;98.72;100418.91;5012299;28;20068;-90
2023/01/12 08:00:58;;;;;;;5.88;1.35;;;;;;;9.41;98.83;100435.59;5026430;28;20032;-90
2023/01/12 08:03:24;;;;;;;4.22;1.42;;;;;;;9.47;98.96;100434.50;5025362;28;20096;-90
2023/01/12 08:05:49;;;;;;;3.17;1.27;;;;;;;9.49;98.42;100431.81;5027206;28;20025;-90
2023/01/12 08:08:14;;;;;;;2.90;1.23;;;;;;;9.42;98.87;100437.34;5030350;28;20084;-90
2023/01/12 08:10:42;;;;;;;4.13;1.75;;;;;;;9.36;98.19;100434.94;5022859;28;20112;-90
2023/01/12 08:13:07;;;;;;;6.65;1.40;;;;;;;9.51;98.69;100466.88;5010939;28;20088;-90
2023/01/12 08:15:39;;;;;;;2.78;1.10;;;;;;;9.55;98.76;100455.28;5026349;28;20057;-91
2023/01/12 08:18:11;;;;;;;7.68;1.50;;;;;;;9.46;98.39;100464.44;5026130;28;20037;-90
2023/01/12 08:20:36;;;;;;;;;;;;;;;9.61;98.33;100469.09;5007532;28;20118;-91
2023/01/12 08:23:09;;;;;;;4.10;1.25;;;;;;;9.55;98.49;100458.78;5008069;28;20003;-90
2023/01/12 08:25:43;;;;;;;6.20;1.00;;;;;;;9.60;99.40;100463.84;5009069;28;20507;-90
2023/01/12 08:28:11;;;;;;;4.20;1.17;;;;;;;9.52;98.43;100444.88;5012729;28;20028;-90
2023/01/12 08:30:36;;;;;;;4.53;1.40;;;;;;;9.60;98.74;100462.06;5027814;28;20033;-90
2023/01/12 08:33:02;;;;;;;1.58;0.93;;;;;;;9.58;98.65;100461.28;5026766;28;20028;-90
2023/01/12 08:35:31;;;;;;;3.83;1.35;;;;;;;9.58;98.18;100455.16;5023363;28;20029;-91
2023/01/12 08:37:56;;;;;;;3.22;1.10;;;;;;;9.61;98.33;100449.75;5029268;28;20036;-90
2023/01/12 08:40:23;;;;;;;2.63;0.93;;;;;;;9.64;99.00;100457.53;5006046;28;20025;-91
2023/01/12 08:42:48;;;;;;;1.58;0.80;;;;;;;9.68;98.45;100469.69;5006881;28;20073;-90
2023/01/12 08:45:14;;;;;;;2.65;0.93;;;;;;;9.68;98.01;100465.25;5009817;28;20196;-91
2023/01/12 08:47:43;;;;;;;3.22;1.30;;;;;;;9.69;98.90;100474.03;5007016;28;20033;-90
2023/01/12 08:50:10;;;;;;;1.92;0.93;;;;;;;9.69;98.54;100461.69;5025427;28;20042;-90
2023/01/12 08:52:35;;;;;;;2.97;1.02;;;;;;;9.81;98.87;100481.44;5027485;28;20053;-90
2023/01/12 08:55:00;;;;;;;4.88;1.73;;;;;;;9.80;98.24;100490.28;5026535;28;20434;-90
2023/01/12 08:57:26;;;;;;;2.83;0.90;;;;;;;9.80;98.74;100477.09;5024104;28;20041;-90
2023/01/12 08:59:51;;;;;;;3.80;1.33;;;;;;;9.79;99.04;100485.06;5025414;28;20033;-89
2023/01/12 09:02:17;;;;;;;2.95;1.40;;;;;;;9.86;98.77;100486.53;5021156;28;20033;-90
2023/01/12 09:04:42;;;;;;;1.98;1.00;;;;;;;9.86;99.14;100497.09;5017132;28;20109;-90
2023/01/12 09:07:09;;;;;;;1.88;1.40;;;;;;;9.87;98.56;100506.72;5028407;28;20532;-90
2023/01/12 09:09:35;;;;;;;1.98;1.15;;;;;;;9.80;98.25;100506.13;5029816;28;20040;-90
2023/01/12 09:12:01;;;;;;;1.48;1.15;;;;;;;9.96;98.70;100511.59;5024171;28;20475;-90
2023/01/12 09:14:26;;;;;;;1.42;1.00;;;;;;;9.92;98.36;100510.88;5012537;28;20021;-90
2023/01/12 09:16:52;;;;;;;1.83;1.20;;;;;;;9.94;98.93;100522.25;5029591;28;20103;-90
2023/01/12 09:19:18;;;;;;;3.92;1.00;;;;;;;9.94;98.85;100514.31;5027676;28;20079;-90
2023/01/12 09:21:43;;;;;;;3.45;1.17;;;;;;;9.95;98.61;100512.53;5025872;28;20492;-91
2023/01/12 09:24:10;;;;;;;3.08;1.10;;;;;;;10.07;98.80;100526.97;5014199;28;20013;-89
2023/01/12 09:26:38;;;;;;;3.83;1.27;;;;;;;10.03;98.77;100526.28;5011649;28;20125;-90
2023/01/12 09:29:04;;;;;;;1.25;1.02;;;;;;;10.03;98.55;100523.63;5021084;28;20397;-90
2023/01/12 09:31:31;;;;;;;1.35;1.13;;;;;;;10.15;98.99;100530.16;5025310;28;20071;-89
2023/01/12 09:33:57;;;;;;;2.60;1.23;;;;;;;10.01;98.84;100517.56;5029147;28;20033;-90
2023/01/12 09:36:28;;;;;;;2.53;1.60;;;;;;;10.06;99.34;100520.84;5010297;28;20401;-91
2023/01/12 09:38:54;;;;;;;1.98;1.58;;;;;;;10.03;99.15;100523.63;5030188;28;20044;-90
2023/01/12 09:47:20;;;;;;;0.77;0.77;;;;;;;10.11;98.87;100526.78;5023826;28;20051;-89
2023/01/12 09:49:54;;;;;;;5.75;1.05;;;;;;;10.14;99.41;100555.72;5020089;28;20054;-89
2023/01/12 09:52:45;;;;;;;1.80;0.70;;;;;;;9.98;99.01;100533.53;5023245;28;20100;-90
2023/01/12 09:55:20;;;;;;;1.60;0.73;;;;;;;10.10;98.31;100563.84;5000642;28;20068;-89
2023/01/12 09:58:10;;;;;;;2.33;0.75;;;;;;;10.15;98.86;100538.94;5006942;28;20032;-89
2023/01/12 10:00:35;;;;;;;4.97;0.90;;;;;;;10.11;98.17;100560.28;5019866;28;20025;-89
2023/01/12 10:03:05;;;;;;;1.80;0.90;;;;;;;10.13;99.15;100553.16;5022960;28;20111;-90
2023/01/12 10:05:45;;;;;;;1.88;0.75;;;;;;;10.05;98.70;100563.19;5019731;28;20037;-89
2023/01/12 10:08:50;;;;;;;1.13;0.60;;;;;;;10.13;99.31;100561.09;5012597;28;20477;-89
2023/01/12 10:11:34;;;;;;;2.08;1.20;;;;;;;10.24;98.56;100548.28;5018008;28;20049;-89
2023/01/12 10:14:10;;;;;;;1.23;0.63;;;;;;;10.20;98.71;100563.38;5030545;28;20481;-90
2023/01/12 10:16:54;;;;;;;2.30;1.00;;;;;;;10.18;99.42;100561.75;5005789;28;20314;-89
2023/01/12 10:19:44;;;;;;;2.05;0.70;;;;;;;10.19;99.29;100559.03;5006505;28;20038;-89
2023/01/12 10:22:36;;;;;;;2.47;0.90;;;;;;;10.20;99.03;100566.00;5009600;28;20032;-89
2023/01/12 10:25:21;;;;;;;1.05;0.70;;;;;;;10.11;98.72;100579.63;5026180;28;20036;-89
2023/01/12 10:27:48;;;;;;;0.73;0.68;;;;;;;10.21;98.82;100557.19;4969504;28;20513;-89
2023/01/12 10:30:24;;;;;;;1.10;0.70;;;;;;;10.22;98.88;100576.53;5004257;28;20121;-89
2023/01/12 10:32:50;;;;;;;1.70;0.88;;;;;;;9.99;99.55;100532.63;5020296;28;20065;-89
2023/01/12 10:35:18;;;;;;;1.90;1.08;;;;;;;10.13;99.48;100555.78;5005317;28;20116;-90
2023/01/12 10:37:49;;;;;;;1.48;0.82;;;;;;;10.12;99.82;100554.94;5025789;28;20542;-89
2023/01/12 10:40:24;;;;;;;0.68;0.68;;;;;;;10.15;99.41;100553.94;5021210;28;20087;-89
2023/01/12 10:43:20;;;;;;;2.50;0.63;;;;;;;10.16;99.53;100563.56;5019564;28;20076;-89
2023/01/12 10:46:08;;;;;;;3.50;0.82;;;;;;;10.18;99.11;100581.09;4999054;28;20753;-89
2023/01/12 10:48:34;;;;;;;1.27;0.70;;;;;;;10.23;99.68;100573.81;5013965;28;20116;-89
2023/01/12 10:51:04;;;;;;;1.00;0.70;;;;;;;10.19;99.45;100539.69;5011122;28;20112;-89
2023/01/12 10:53:57;;;;;;;0.50;0.45;;;;;;;10.39;99.23;100549.41;5026183;28;20037;-89
2023/01/12 10:56:38;;;;;;;1.35;0.70;;;;;;;10.36;99.04;100549.56;5023834;28;20120;-89
2023/01/12 10:59:18;;;;;;;1.58;0.80;;;;;;;10.26;99.56;100545.56;5025479;28;20029;-89
2023/01/12 11:01:51;;;;;;;1.52;1.00;;;;;;;10.35;99.70;100561.03;5010225;28;20366;-89
2023/01/12 11:04:23;;;;;;;1.27;0.65;;;;;;;10.31;99.72;100547.13;5017883;28;20056;-89
2023/01/12 11:06:59;;;;;;;1.02;0.90;;;;;;;10.37;99.36;100569.75;5012302;28;20030;-89
2023/01/12 11:09:27;;;;;;;0.95;0.70;;;;;;;10.24;99.79;100550.94;5031530;28;20021;-89
2023/01/12 11:12:01;;;;;;;1.02;0.82;;;;;;;10.28;99.63;100544.59;5012172;28;20543;-89
2023/01/12 11:14:30;;;;;;;0.90;0.85;;;;;;;10.31;99.70;100556.81;5029213;28;20481;-89
2023/01/12 11:17:22;;;;;;;1.13;0.68;;;;;;;10.34;99.69;100539.03;5016528;28;20029;-89
2023/01/12 11:19:49;;;;;;;1.35;0.80;;;;;;;10.30;98.98;100534.81;5011721;28;20032;-89
2023/01/12 11:22:19;;;;;;;1.48;0.70;;;;;;;10.38;99.96;100543.25;5031667;28;20029;-90
2023/01/12 11:24:56;;;;;;;0.88;0.88;;;;;;;10.43;99.66;100554.47;5034639;28;20619;-89
2023/01/12 11:27:29;;;;;;;1.40;0.68;;;;;;;10.33;99.39;100552.31;5004958;28;20437;-89
2023/01/12 11:30:02;;;;;;;3.17;1.10;;;;;;;10.39;100.00;100552.03;5011053;28;20026;-90
2023/01/12 11:32:45;;;;;;;1.52;0.88;;;;;;;10.40;99.83;100549.34;5012517;28;20033;-89
2023/01/12 11:35:20;;;;;;;1.08;0.70;;;;;;;10.40;99.41;100552.00;5007045;28;20028;-89
2023/01/12 11:37:47;;;;;;;0.90;0.90;;;;;;;10.36;99.38;100539.84;5012172;28;20477;-90
2023/01/12 11:40:33;;;;;;;1.02;0.95;;;;;;;10.42;99.49;100550.13;5016259;28;20044;-90
2023/01/12 11:46:43;;;;;;;0.63;0.63;;;;;;;10.45;99.60;100546.50;5029206;28;20076;-90
2023/01/12 11:49:18;;;;;;;1.00;0.95;;;;;;;10.63;99.28;100560.66;5026932;28;20092;-90
2023/01/12 11:51:47;;;;;;;1.25;1.08;;;;;;;10.56;99.24;100524.88;5027796;28;20038;-90
2023/01/12 11:54:16;;;;;;;0.88;0.88;;;;;;;10.62;98.84;100554.53;5011260;28;20672;-90
2023/01/12 11:56:57;;;;;;;1.17;0.90;;;;;;;10.66;99.07;100531.44;5025928;28;20029;-90
2023/01/12 11:59:43;;;;;;;1.15;1.05;;;;;;;10.67;98.67;100534.00;5029104;28;20503;-90
2023/01/12 12:02:50;;;;;;;0.93;0.90;;;;;;;10.72;98.50;100533.81;5025113;28;20489;-90
2023/01/12 12:05:35;;;;;;;1.00;0.90;;;;;;;10.58;98.12;100544.16;5027584;28;20479;-89
2023/01/12 12:08:30;;;;;;;1.02;0.93;;;;;;;10.67;98.76;100522.59;5029249;28;20025;-90
2023/01/12 12:11:20;;;;;;;1.95;0.88;;;;;;;10.62;98.22;100528.06;5030130;28;20029;-90
2023/01/12 12:14:15;;;;;;;0.80;0.80;;;;;;;10.69;98.52;100526.03;5012022;28;20544;-90
2023/01/12 12:16:53;;;;;;;2.60;0.90;;;;;;;10.67;98.62;100509.38;4985914;28;20044;-89